sensor_id;sensor_type;location;lat;lon;timestamp;P1;durP1;ratioP1;P2;durP2;ratioP2
75716;SDS011;64333;50.138;14.332;2023-06-22T00:01:55;9.90;;;8.20;;
75716;SDS011;64333;50.138;14.332;2023-06-22T00:04:20;9.77;;;7.82;;
75716;SDS011;64333;50.138;14.332;2023-06-22T00:06:47;12.80;;;8.60;;
75716;SDS011;64333;50.138;14.332;2023-06-22T00:09:12;10.05;;;7.95;;
75716;SDS011;64333;50.138;14.332;2023-06-22T00:11:37;11.60;;;8.15;;
75716;SDS011;64333;50.138;14.332;2023-06-22T00:14:03;12.52;;;7.72;;
75716;SDS011;64333;50.138;14.332;2023-06-22T00:16:29;11.23;;;7.68;;
75716;SDS011;64333;50.138;14.332;2023-06-22T00:18:54;11.15;;;8.23;;
75716;SDS011;64333;50.138;14.332;2023-06-22T00:21:20;12.32;;;8.30;;
75716;SDS011;64333;50.138;14.332;2023-06-22T00:23:45;11.75;;;8.63;;
75716;SDS011;64333;50.138;14.332;2023-06-22T00:26:12;11.63;;;8.50;;
75716;SDS011;64333;50.138;14.332;2023-06-22T00:28:38;11.27;;;8.25;;
75716;SDS011;64333;50.138;14.332;2023-06-22T00:31:03;10.02;;;7.57;;
75716;SDS011;64333;50.138;14.332;2023-06-22T00:33:29;10.50;;;7.63;;
75716;SDS011;64333;50.138;14.332;2023-06-22T00:35:54;11.52;;;7.68;;
75716;SDS011;64333;50.138;14.332;2023-06-22T00:38:20;10.07;;;7.53;;
75716;SDS011;64333;50.138;14.332;2023-06-22T00:40:45;11.27;;;7.38;;
75716;SDS011;64333;50.138;14.332;2023-06-22T00:43:11;9.90;;;8.13;;
75716;SDS011;64333;50.138;14.332;2023-06-22T00:45:36;9.73;;;7.82;;
75716;SDS011;64333;50.138;14.332;2023-06-22T00:48:02;11.20;;;8.93;;
75716;SDS011;64333;50.138;14.332;2023-06-22T00:50:31;11.13;;;8.15;;
75716;SDS011;64333;50.138;14.332;2023-06-22T00:52:58;10.48;;;8.63;;
75716;SDS011;64333;50.138;14.332;2023-06-22T00:55:25;9.63;;;8.63;;
75716;SDS011;64333;50.138;14.332;2023-06-22T00:57:52;11.50;;;8.35;;
75716;SDS011;64333;50.138;14.332;2023-06-22T01:00:22;11.55;;;7.93;;
75716;SDS011;64333;50.138;14.332;2023-06-22T01:02:49;10.50;;;8.30;;
75716;SDS011;64333;50.138;14.332;2023-06-22T01:05:19;10.43;;;8.18;;
75716;SDS011;64333;50.138;14.332;2023-06-22T01:10:25;13.23;;;9.02;;
75716;SDS011;64333;50.138;14.332;2023-06-22T01:12:58;11.27;;;8.48;;
75716;SDS011;64333;50.138;14.332;2023-06-22T01:15:28;12.60;;;9.60;;
75716;SDS011;64333;50.138;14.332;2023-06-22T01:17:54;11.85;;;8.93;;
75716;SDS011;64333;50.138;14.332;2023-06-22T01:20:22;14.02;;;10.23;;
75716;SDS011;64333;50.138;14.332;2023-06-22T01:25:21;14.00;;;8.90;;
75716;SDS011;64333;50.138;14.332;2023-06-22T01:28:00;12.98;;;9.38;;
75716;SDS011;64333;50.138;14.332;2023-06-22T01:30:40;11.63;;;9.10;;
75716;SDS011;64333;50.138;14.332;2023-06-22T01:33:09;14.80;;;9.73;;
75716;SDS011;64333;50.138;14.332;2023-06-22T01:35:37;12.05;;;9.25;;
75716;SDS011;64333;50.138;14.332;2023-06-22T01:38:03;13.45;;;9.50;;
75716;SDS011;64333;50.138;14.332;2023-06-22T01:40:30;13.45;;;9.77;;
75716;SDS011;64333;50.138;14.332;2023-06-22T01:42:58;10.93;;;8.77;;
75716;SDS011;64333;50.138;14.332;2023-06-22T01:45:25;12.13;;;8.90;;
75716;SDS011;64333;50.138;14.332;2023-06-22T01:47:52;12.45;;;9.80;;
75716;SDS011;64333;50.138;14.332;2023-06-22T01:50:17;14.32;;;9.27;;
75716;SDS011;64333;50.138;14.332;2023-06-22T01:52:43;12.40;;;8.93;;
75716;SDS011;64333;50.138;14.332;2023-06-22T01:55:08;11.55;;;9.45;;
75716;SDS011;64333;50.138;14.332;2023-06-22T01:57:34;13.52;;;9.60;;
75716;SDS011;64333;50.138;14.332;2023-06-22T02:00:03;11.50;;;8.95;;
75716;SDS011;64333;50.138;14.332;2023-06-22T02:02:55;14.77;;;10.18;;
75716;SDS011;64333;50.138;14.332;2023-06-22T02:05:35;10.70;;;9.40;;
75716;SDS011;64333;50.138;14.332;2023-06-22T02:08:13;11.10;;;9.20;;
75716;SDS011;64333;50.138;14.332;2023-06-22T02:10:44;13.02;;;9.75;;
75716;SDS011;64333;50.138;14.332;2023-06-22T02:13:10;13.02;;;9.63;;
75716;SDS011;64333;50.138;14.332;2023-06-22T02:15:37;15.30;;;10.65;;
75716;SDS011;64333;50.138;14.332;2023-06-22T02:18:03;15.65;;;10.63;;
75716;SDS011;64333;50.138;14.332;2023-06-22T02:20:29;12.23;;;10.13;;
75716;SDS011;64333;50.138;14.332;2023-06-22T02:22:54;18.27;;;10.50;;
75716;SDS011;64333;50.138;14.332;2023-06-22T02:25:19;10.15;;;8.68;;
75716;SDS011;64333;50.138;14.332;2023-06-22T02:27:46;11.77;;;8.57;;
75716;SDS011;64333;50.138;14.332;2023-06-22T02:30:11;13.07;;;8.80;;
75716;SDS011;64333;50.138;14.332;2023-06-22T02:32:37;12.95;;;9.88;;
75716;SDS011;64333;50.138;14.332;2023-06-22T02:35:02;12.35;;;9.60;;
75716;SDS011;64333;50.138;14.332;2023-06-22T02:37:31;13.10;;;9.82;;
75716;SDS011;64333;50.138;14.332;2023-06-22T02:39:57;14.18;;;10.13;;
75716;SDS011;64333;50.138;14.332;2023-06-22T02:42:23;12.00;;;8.98;;
75716;SDS011;64333;50.138;14.332;2023-06-22T02:44:48;11.60;;;9.68;;
75716;SDS011;64333;50.138;14.332;2023-06-22T02:47:14;12.23;;;9.88;;
75716;SDS011;64333;50.138;14.332;2023-06-22T02:49:42;11.77;;;9.43;;
75716;SDS011;64333;50.138;14.332;2023-06-22T02:52:09;13.55;;;9.93;;
75716;SDS011;64333;50.138;14.332;2023-06-22T02:54:35;13.15;;;10.15;;
75716;SDS011;64333;50.138;14.332;2023-06-22T02:57:00;12.82;;;9.85;;
75716;SDS011;64333;50.138;14.332;2023-06-22T02:59:28;11.38;;;10.07;;
75716;SDS011;64333;50.138;14.332;2023-06-22T03:01:54;13.20;;;9.95;;
75716;SDS011;64333;50.138;14.332;2023-06-22T03:04:19;11.90;;;9.90;;
75716;SDS011;64333;50.138;14.332;2023-06-22T03:06:44;13.40;;;10.48;;
75716;SDS011;64333;50.138;14.332;2023-06-22T03:09:15;13.88;;;10.77;;
75716;SDS011;64333;50.138;14.332;2023-06-22T03:11:41;11.95;;;9.90;;
75716;SDS011;64333;50.138;14.332;2023-06-22T03:14:06;14.30;;;10.88;;
75716;SDS011;64333;50.138;14.332;2023-06-22T03:16:32;15.50;;;11.38;;
75716;SDS011;64333;50.138;14.332;2023-06-22T03:18:58;13.25;;;10.50;;
75716;SDS011;64333;50.138;14.332;2023-06-22T03:21:28;13.50;;;10.18;;
75716;SDS011;64333;50.138;14.332;2023-06-22T03:23:54;11.52;;;9.68;;
75716;SDS011;64333;50.138;14.332;2023-06-22T03:26:20;13.98;;;11.43;;
75716;SDS011;64333;50.138;14.332;2023-06-22T03:28:45;14.60;;;11.43;;
75716;SDS011;64333;50.138;14.332;2023-06-22T03:31:11;13.15;;;10.45;;
75716;SDS011;64333;50.138;14.332;2023-06-22T03:33:36;13.75;;;10.68;;
75716;SDS011;64333;50.138;14.332;2023-06-22T03:36:02;14.30;;;10.18;;
75716;SDS011;64333;50.138;14.332;2023-06-22T03:38:27;13.70;;;11.13;;
75716;SDS011;64333;50.138;14.332;2023-06-22T03:40:53;12.50;;;10.25;;
75716;SDS011;64333;50.138;14.332;2023-06-22T03:43:18;11.75;;;9.90;;
75716;SDS011;64333;50.138;14.332;2023-06-22T03:45:43;13.73;;;10.43;;
75716;SDS011;64333;50.138;14.332;2023-06-22T03:48:10;15.25;;;10.75;;
75716;SDS011;64333;50.138;14.332;2023-06-22T03:50:36;13.52;;;10.48;;
75716;SDS011;64333;50.138;14.332;2023-06-22T03:53:02;13.57;;;9.70;;
75716;SDS011;64333;50.138;14.332;2023-06-22T03:55:27;14.43;;;10.18;;
75716;SDS011;64333;50.138;14.332;2023-06-22T03:57:53;13.25;;;10.20;;
75716;SDS011;64333;50.138;14.332;2023-06-22T04:00:21;14.02;;;10.15;;
75716;SDS011;64333;50.138;14.332;2023-06-22T04:02:47;15.57;;;10.02;;
75716;SDS011;64333;50.138;14.332;2023-06-22T04:05:12;12.20;;;10.00;;
75716;SDS011;64333;50.138;14.332;2023-06-22T04:07:38;11.90;;;9.75;;
75716;SDS011;64333;50.138;14.332;2023-06-22T04:10:04;16.27;;;10.32;;
75716;SDS011;64333;50.138;14.332;2023-06-22T04:12:30;13.77;;;9.52;;
75716;SDS011;64333;50.138;14.332;2023-06-22T04:14:55;13.98;;;10.00;;
75716;SDS011;64333;50.138;14.332;2023-06-22T04:17:20;14.27;;;9.60;;
75716;SDS011;64333;50.138;14.332;2023-06-22T04:19:46;13.05;;;10.00;;
75716;SDS011;64333;50.138;14.332;2023-06-22T04:22:12;12.70;;;10.02;;
75716;SDS011;64333;50.138;14.332;2023-06-22T04:24:37;14.50;;;10.30;;
75716;SDS011;64333;50.138;14.332;2023-06-22T04:27:03;14.13;;;9.98;;
75716;SDS011;64333;50.138;14.332;2023-06-22T04:29:29;14.00;;;9.98;;
75716;SDS011;64333;50.138;14.332;2023-06-22T04:31:58;12.95;;;10.05;;
75716;SDS011;64333;50.138;14.332;2023-06-22T04:34:24;12.13;;;10.02;;
75716;SDS011;64333;50.138;14.332;2023-06-22T04:36:52;13.52;;;9.93;;
75716;SDS011;64333;50.138;14.332;2023-06-22T04:39:18;11.77;;;9.63;;
75716;SDS011;64333;50.138;14.332;2023-06-22T04:41:43;12.73;;;9.77;;
75716;SDS011;64333;50.138;14.332;2023-06-22T04:44:13;12.00;;;10.25;;
75716;SDS011;64333;50.138;14.332;2023-06-22T04:46:50;13.38;;;9.80;;
75716;SDS011;64333;50.138;14.332;2023-06-22T04:49:24;14.57;;;10.40;;
75716;SDS011;64333;50.138;14.332;2023-06-22T04:51:58;12.50;;;10.48;;
75716;SDS011;64333;50.138;14.332;2023-06-22T04:54:24;13.77;;;10.77;;
75716;SDS011;64333;50.138;14.332;2023-06-22T04:56:50;12.57;;;10.75;;
75716;SDS011;64333;50.138;14.332;2023-06-22T04:59:21;12.23;;;10.25;;
75716;SDS011;64333;50.138;14.332;2023-06-22T05:01:59;12.10;;;9.82;;
75716;SDS011;64333;50.138;14.332;2023-06-22T05:04:26;13.07;;;9.93;;
75716;SDS011;64333;50.138;14.332;2023-06-22T05:07:00;14.18;;;11.27;;
75716;SDS011;64333;50.138;14.332;2023-06-22T05:09:27;12.52;;;9.95;;
75716;SDS011;64333;50.138;14.332;2023-06-22T05:11:52;12.77;;;10.00;;
75716;SDS011;64333;50.138;14.332;2023-06-22T05:14:18;12.40;;;9.25;;
75716;SDS011;64333;50.138;14.332;2023-06-22T05:16:44;11.68;;;9.75;;
75716;SDS011;64333;50.138;14.332;2023-06-22T05:19:10;14.05;;;9.43;;
75716;SDS011;64333;50.138;14.332;2023-06-22T05:21:37;13.07;;;10.40;;
75716;SDS011;64333;50.138;14.332;2023-06-22T05:24:03;11.70;;;9.90;;
75716;SDS011;64333;50.138;14.332;2023-06-22T05:26:29;14.18;;;10.98;;
75716;SDS011;64333;50.138;14.332;2023-06-22T05:28:56;15.20;;;10.68;;
75716;SDS011;64333;50.138;14.332;2023-06-22T05:31:22;14.77;;;11.45;;
75716;SDS011;64333;50.138;14.332;2023-06-22T05:33:48;13.38;;;10.65;;
75716;SDS011;64333;50.138;14.332;2023-06-22T05:36:16;15.02;;;11.23;;
75716;SDS011;64333;50.138;14.332;2023-06-22T05:38:42;13.52;;;10.93;;
75716;SDS011;64333;50.138;14.332;2023-06-22T05:41:07;15.35;;;11.32;;
75716;SDS011;64333;50.138;14.332;2023-06-22T05:43:33;13.27;;;11.57;;
75716;SDS011;64333;50.138;14.332;2023-06-22T05:46:04;16.38;;;11.93;;
75716;SDS011;64333;50.138;14.332;2023-06-22T05:48:30;13.88;;;11.18;;
75716;SDS011;64333;50.138;14.332;2023-06-22T05:50:55;14.75;;;11.10;;
75716;SDS011;64333;50.138;14.332;2023-06-22T05:53:20;14.07;;;12.35;;
75716;SDS011;64333;50.138;14.332;2023-06-22T05:55:46;13.95;;;11.82;;
75716;SDS011;64333;50.138;14.332;2023-06-22T05:58:12;15.10;;;13.07;;
75716;SDS011;64333;50.138;14.332;2023-06-22T06:00:38;14.25;;;11.98;;
75716;SDS011;64333;50.138;14.332;2023-06-22T06:03:04;15.25;;;12.60;;
75716;SDS011;64333;50.138;14.332;2023-06-22T06:05:30;16.08;;;11.57;;
75716;SDS011;64333;50.138;14.332;2023-06-22T06:07:56;13.77;;;12.00;;
75716;SDS011;64333;50.138;14.332;2023-06-22T06:10:22;14.02;;;12.10;;
75716;SDS011;64333;50.138;14.332;2023-06-22T06:12:48;13.05;;;11.80;;
75716;SDS011;64333;50.138;14.332;2023-06-22T06:15:13;17.20;;;11.73;;
75716;SDS011;64333;50.138;14.332;2023-06-22T06:17:46;15.85;;;11.55;;
75716;SDS011;64333;50.138;14.332;2023-06-22T06:20:15;14.88;;;11.45;;
75716;SDS011;64333;50.138;14.332;2023-06-22T06:22:42;17.52;;;13.80;;
75716;SDS011;64333;50.138;14.332;2023-06-22T06:25:08;16.65;;;12.93;;
75716;SDS011;64333;50.138;14.332;2023-06-22T06:27:33;16.27;;;13.13;;
75716;SDS011;64333;50.138;14.332;2023-06-22T06:29:59;17.00;;;12.27;;
75716;SDS011;64333;50.138;14.332;2023-06-22T06:32:24;13.05;;;11.75;;
75716;SDS011;64333;50.138;14.332;2023-06-22T06:34:50;12.70;;;11.35;;
75716;SDS011;64333;50.138;14.332;2023-06-22T06:37:16;15.07;;;12.20;;
75716;SDS011;64333;50.138;14.332;2023-06-22T06:39:42;14.18;;;12.48;;
75716;SDS011;64333;50.138;14.332;2023-06-22T06:42:07;16.05;;;12.45;;
75716;SDS011;64333;50.138;14.332;2023-06-22T06:44:33;13.20;;;11.60;;
75716;SDS011;64333;50.138;14.332;2023-06-22T06:46:58;14.70;;;11.65;;
75716;SDS011;64333;50.138;14.332;2023-06-22T06:49:24;14.82;;;10.70;;
75716;SDS011;64333;50.138;14.332;2023-06-22T06:51:49;14.45;;;11.43;;
75716;SDS011;64333;50.138;14.332;2023-06-22T06:54:15;14.23;;;11.45;;
75716;SDS011;64333;50.138;14.332;2023-06-22T06:56:40;12.32;;;10.57;;
75716;SDS011;64333;50.138;14.332;2023-06-22T06:59:09;17.80;;;12.40;;
75716;SDS011;64333;50.138;14.332;2023-06-22T07:01:35;13.57;;;11.63;;
75716;SDS011;64333;50.138;14.332;2023-06-22T07:04:00;15.73;;;11.43;;
75716;SDS011;64333;50.138;14.332;2023-06-22T07:06:26;14.23;;;11.32;;
75716;SDS011;64333;50.138;14.332;2023-06-22T07:08:54;13.30;;;10.82;;
75716;SDS011;64333;50.138;14.332;2023-06-22T07:11:20;13.73;;;11.55;;
75716;SDS011;64333;50.138;14.332;2023-06-22T07:13:46;12.98;;;11.07;;
75716;SDS011;64333;50.138;14.332;2023-06-22T07:16:11;14.57;;;10.98;;
75716;SDS011;64333;50.138;14.332;2023-06-22T07:18:36;15.10;;;11.27;;
75716;SDS011;64333;50.138;14.332;2023-06-22T07:21:04;15.57;;;11.18;;
75716;SDS011;64333;50.138;14.332;2023-06-22T07:23:31;14.13;;;11.38;;
75716;SDS011;64333;50.138;14.332;2023-06-22T07:25:56;13.50;;;11.77;;
75716;SDS011;64333;50.138;14.332;2023-06-22T07:28:22;16.00;;;11.63;;
75716;SDS011;64333;50.138;14.332;2023-06-22T07:30:47;13.35;;;11.18;;
75716;SDS011;64333;50.138;14.332;2023-06-22T07:33:13;14.00;;;11.23;;
75716;SDS011;64333;50.138;14.332;2023-06-22T07:35:38;16.45;;;11.50;;
75716;SDS011;64333;50.138;14.332;2023-06-22T07:38:04;14.45;;;10.90;;
75716;SDS011;64333;50.138;14.332;2023-06-22T07:40:29;11.98;;;10.73;;
75716;SDS011;64333;50.138;14.332;2023-06-22T07:42:54;11.52;;;10.05;;
75716;SDS011;64333;50.138;14.332;2023-06-22T07:45:20;13.00;;;10.15;;
75716;SDS011;64333;50.138;14.332;2023-06-22T07:47:45;11.95;;;10.40;;
75716;SDS011;64333;50.138;14.332;2023-06-22T07:50:11;14.77;;;11.35;;
75716;SDS011;64333;50.138;14.332;2023-06-22T07:52:36;15.23;;;12.18;;
75716;SDS011;64333;50.138;14.332;2023-06-22T07:55:01;13.63;;;10.43;;
75716;SDS011;64333;50.138;14.332;2023-06-22T07:57:27;13.13;;;9.52;;
75716;SDS011;64333;50.138;14.332;2023-06-22T07:59:59;17.40;;;10.80;;
75716;SDS011;64333;50.138;14.332;2023-06-22T08:02:25;14.30;;;10.65;;
75716;SDS011;64333;50.138;14.332;2023-06-22T08:04:51;11.82;;;10.32;;
75716;SDS011;64333;50.138;14.332;2023-06-22T08:07:17;13.25;;;10.32;;
75716;SDS011;64333;50.138;14.332;2023-06-22T08:09:47;12.93;;;10.00;;
75716;SDS011;64333;50.138;14.332;2023-06-22T08:12:14;11.60;;;10.18;;
75716;SDS011;64333;50.138;14.332;2023-06-22T08:14:41;12.43;;;10.13;;
75716;SDS011;64333;50.138;14.332;2023-06-22T08:17:08;14.13;;;10.32;;
75716;SDS011;64333;50.138;14.332;2023-06-22T08:19:34;13.63;;;10.27;;
75716;SDS011;64333;50.138;14.332;2023-06-22T08:22:00;12.63;;;10.25;;
75716;SDS011;64333;50.138;14.332;2023-06-22T08:24:25;15.90;;;10.25;;
75716;SDS011;64333;50.138;14.332;2023-06-22T08:26:55;10.32;;;9.23;;
75716;SDS011;64333;50.138;14.332;2023-06-22T08:29:20;11.68;;;10.23;;
75716;SDS011;64333;50.138;14.332;2023-06-22T08:31:46;10.88;;;9.15;;
75716;SDS011;64333;50.138;14.332;2023-06-22T08:34:11;12.38;;;9.40;;
75716;SDS011;64333;50.138;14.332;2023-06-22T08:36:37;10.65;;;9.43;;
75716;SDS011;64333;50.138;14.332;2023-06-22T08:39:06;11.82;;;9.40;;
75716;SDS011;64333;50.138;14.332;2023-06-22T08:41:31;11.05;;;9.65;;
75716;SDS011;64333;50.138;14.332;2023-06-22T08:43:57;10.73;;;9.63;;
75716;SDS011;64333;50.138;14.332;2023-06-22T08:46:22;9.80;;;8.63;;
75716;SDS011;64333;50.138;14.332;2023-06-22T08:48:55;10.60;;;8.85;;
75716;SDS011;64333;50.138;14.332;2023-06-22T08:51:22;11.05;;;9.95;;
75716;SDS011;64333;50.138;14.332;2023-06-22T08:53:49;10.70;;;9.20;;
75716;SDS011;64333;50.138;14.332;2023-06-22T08:56:15;11.45;;;8.90;;
75716;SDS011;64333;50.138;14.332;2023-06-22T08:58:41;10.68;;;9.35;;
75716;SDS011;64333;50.138;14.332;2023-06-22T09:01:07;10.02;;;9.02;;
75716;SDS011;64333;50.138;14.332;2023-06-22T09:03:32;12.25;;;9.23;;
75716;SDS011;64333;50.138;14.332;2023-06-22T09:06:01;9.60;;;8.57;;
75716;SDS011;64333;50.138;14.332;2023-06-22T09:08:27;10.60;;;8.85;;
75716;SDS011;64333;50.138;14.332;2023-06-22T09:10:52;11.40;;;8.98;;
75716;SDS011;64333;50.138;14.332;2023-06-22T09:13:18;9.50;;;8.48;;
75716;SDS011;64333;50.138;14.332;2023-06-22T09:15:43;9.30;;;7.85;;
75716;SDS011;64333;50.138;14.332;2023-06-22T09:18:13;9.52;;;8.65;;
75716;SDS011;64333;50.138;14.332;2023-06-22T09:20:38;10.90;;;8.45;;
75716;SDS011;64333;50.138;14.332;2023-06-22T09:23:04;10.82;;;9.30;;
75716;SDS011;64333;50.138;14.332;2023-06-22T09:25:29;9.63;;;8.63;;
75716;SDS011;64333;50.138;14.332;2023-06-22T09:27:55;9.85;;;8.52;;
75716;SDS011;64333;50.138;14.332;2023-06-22T09:30:21;9.70;;;8.63;;
75716;SDS011;64333;50.138;14.332;2023-06-22T09:32:46;10.18;;;8.73;;
75716;SDS011;64333;50.138;14.332;2023-06-22T09:35:12;8.77;;;7.90;;
75716;SDS011;64333;50.138;14.332;2023-06-22T09:37:38;9.68;;;8.57;;
75716;SDS011;64333;50.138;14.332;2023-06-22T09:40:05;9.43;;;8.52;;
75716;SDS011;64333;50.138;14.332;2023-06-22T09:42:37;8.95;;;8.05;;
75716;SDS011;64333;50.138;14.332;2023-06-22T09:45:03;9.38;;;8.32;;
75716;SDS011;64333;50.138;14.332;2023-06-22T09:47:30;9.57;;;8.57;;
75716;SDS011;64333;50.138;14.332;2023-06-22T09:49:55;9.02;;;8.23;;
75716;SDS011;64333;50.138;14.332;2023-06-22T09:52:21;9.55;;;8.63;;
75716;SDS011;64333;50.138;14.332;2023-06-22T09:54:47;9.25;;;8.35;;
75716;SDS011;64333;50.138;14.332;2023-06-22T09:57:13;11.13;;;8.32;;
75716;SDS011;64333;50.138;14.332;2023-06-22T09:59:38;9.43;;;8.52;;
75716;SDS011;64333;50.138;14.332;2023-06-22T10:02:07;9.48;;;8.45;;
75716;SDS011;64333;50.138;14.332;2023-06-22T10:04:34;10.45;;;8.65;;
75716;SDS011;64333;50.138;14.332;2023-06-22T10:07:00;8.93;;;8.13;;
75716;SDS011;64333;50.138;14.332;2023-06-22T10:09:26;9.25;;;8.45;;
75716;SDS011;64333;50.138;14.332;2023-06-22T10:11:52;8.90;;;7.97;;
75716;SDS011;64333;50.138;14.332;2023-06-22T10:14:18;8.52;;;7.72;;
75716;SDS011;64333;50.138;14.332;2023-06-22T10:16:43;8.35;;;7.60;;
75716;SDS011;64333;50.138;14.332;2023-06-22T10:19:09;8.75;;;7.90;;
75716;SDS011;64333;50.138;14.332;2023-06-22T10:21:35;8.70;;;7.97;;
75716;SDS011;64333;50.138;14.332;2023-06-22T10:24:01;9.05;;;8.15;;
75716;SDS011;64333;50.138;14.332;2023-06-22T10:26:34;9.25;;;8.43;;
75716;SDS011;64333;50.138;14.332;2023-06-22T10:29:01;8.95;;;8.13;;
75716;SDS011;64333;50.138;14.332;2023-06-22T10:31:27;9.77;;;8.77;;
75716;SDS011;64333;50.138;14.332;2023-06-22T10:33:54;9.82;;;8.98;;
75716;SDS011;64333;50.138;14.332;2023-06-22T10:36:21;11.52;;;8.55;;
75716;SDS011;64333;50.138;14.332;2023-06-22T10:38:47;8.85;;;8.07;;
75716;SDS011;64333;50.138;14.332;2023-06-22T10:41:13;9.07;;;7.90;;
75716;SDS011;64333;50.138;14.332;2023-06-22T10:43:38;10.98;;;7.85;;
75716;SDS011;64333;50.138;14.332;2023-06-22T10:46:04;8.90;;;8.00;;
75716;SDS011;64333;50.138;14.332;2023-06-22T10:48:30;7.78;;;7.07;;
75716;SDS011;64333;50.138;14.332;2023-06-22T10:50:56;9.27;;;8.20;;
75716;SDS011;64333;50.138;14.332;2023-06-22T10:53:21;10.15;;;8.27;;
75716;SDS011;64333;50.138;14.332;2023-06-22T10:55:47;9.27;;;8.45;;
75716;SDS011;64333;50.138;14.332;2023-06-22T10:58:13;9.00;;;8.10;;
75716;SDS011;64333;50.138;14.332;2023-06-22T11:00:39;8.65;;;7.95;;
75716;SDS011;64333;50.138;14.332;2023-06-22T11:03:04;8.65;;;7.75;;
75716;SDS011;64333;50.138;14.332;2023-06-22T11:05:30;9.05;;;8.25;;
75716;SDS011;64333;50.138;14.332;2023-06-22T11:07:57;9.88;;;8.98;;
75716;SDS011;64333;50.138;14.332;2023-06-22T11:10:22;9.13;;;8.23;;
75716;SDS011;64333;50.138;14.332;2023-06-22T11:12:48;9.50;;;7.85;;
75716;SDS011;64333;50.138;14.332;2023-06-22T11:15:13;9.70;;;8.20;;
75716;SDS011;64333;50.138;14.332;2023-06-22T11:17:39;11.25;;;8.77;;
75716;SDS011;64333;50.138;14.332;2023-06-22T11:20:04;10.02;;;9.15;;
75716;SDS011;64333;50.138;14.332;2023-06-22T11:22:35;9.82;;;9.00;;
75716;SDS011;64333;50.138;14.332;2023-06-22T11:25:04;10.07;;;8.68;;
75716;SDS011;64333;50.138;14.332;2023-06-22T11:27:30;9.63;;;8.82;;
75716;SDS011;64333;50.138;14.332;2023-06-22T11:29:55;9.40;;;8.50;;
75716;SDS011;64333;50.138;14.332;2023-06-22T11:32:21;9.65;;;8.68;;
75716;SDS011;64333;50.138;14.332;2023-06-22T11:34:46;9.63;;;8.82;;
75716;SDS011;64333;50.138;14.332;2023-06-22T11:37:11;9.80;;;8.90;;
75716;SDS011;64333;50.138;14.332;2023-06-22T11:39:37;9.80;;;8.85;;
75716;SDS011;64333;50.138;14.332;2023-06-22T11:42:02;10.10;;;8.95;;
75716;SDS011;64333;50.138;14.332;2023-06-22T11:44:27;9.32;;;8.52;;
75716;SDS011;64333;50.138;14.332;2023-06-22T11:46:53;8.90;;;8.00;;
75716;SDS011;64333;50.138;14.332;2023-06-22T11:49:18;8.23;;;7.43;;
75716;SDS011;64333;50.138;14.332;2023-06-22T11:51:43;8.80;;;8.00;;
75716;SDS011;64333;50.138;14.332;2023-06-22T11:54:09;9.38;;;8.02;;
75716;SDS011;64333;50.138;14.332;2023-06-22T11:56:34;9.15;;;8.27;;
75716;SDS011;64333;50.138;14.332;2023-06-22T11:58:59;9.23;;;8.43;;
75716;SDS011;64333;50.138;14.332;2023-06-22T12:01:25;10.27;;;9.30;;
75716;SDS011;64333;50.138;14.332;2023-06-22T12:03:50;9.65;;;8.65;;
75716;SDS011;64333;50.138;14.332;2023-06-22T12:06:16;10.07;;;9.18;;
75716;SDS011;64333;50.138;14.332;2023-06-22T12:08:41;9.30;;;8.50;;
75716;SDS011;64333;50.138;14.332;2023-06-22T12:11:06;10.00;;;9.00;;
75716;SDS011;64333;50.138;14.332;2023-06-22T12:13:32;9.73;;;8.73;;
75716;SDS011;64333;50.138;14.332;2023-06-22T12:15:57;8.93;;;7.85;;
75716;SDS011;64333;50.138;14.332;2023-06-22T12:18:23;9.77;;;8.90;;
75716;SDS011;64333;50.138;14.332;2023-06-22T12:20:48;10.25;;;8.73;;
75716;SDS011;64333;50.138;14.332;2023-06-22T12:23:14;9.55;;;8.75;;
75716;SDS011;64333;50.138;14.332;2023-06-22T12:25:40;9.30;;;8.50;;
75716;SDS011;64333;50.138;14.332;2023-06-22T12:28:05;8.98;;;8.07;;
75716;SDS011;64333;50.138;14.332;2023-06-22T12:30:32;9.02;;;8.23;;
75716;SDS011;64333;50.138;14.332;2023-06-22T12:32:58;10.02;;;9.13;;
75716;SDS011;64333;50.138;14.332;2023-06-22T12:35:23;9.45;;;8.57;;
75716;SDS011;64333;50.138;14.332;2023-06-22T12:37:49;10.30;;;9.20;;
75716;SDS011;64333;50.138;14.332;2023-06-22T12:40:15;10.55;;;8.77;;
75716;SDS011;64333;50.138;14.332;2023-06-22T12:42:40;9.32;;;8.43;;
75716;SDS011;64333;50.138;14.332;2023-06-22T12:45:07;9.65;;;8.63;;
75716;SDS011;64333;50.138;14.332;2023-06-22T12:47:33;9.55;;;8.65;;
75716;SDS011;64333;50.138;14.332;2023-06-22T12:49:59;9.73;;;7.70;;
75716;SDS011;64333;50.138;14.332;2023-06-22T12:52:24;13.20;;;8.32;;
75716;SDS011;64333;50.138;14.332;2023-06-22T12:54:50;9.63;;;8.73;;
75716;SDS011;64333;50.138;14.332;2023-06-22T12:57:17;9.07;;;8.02;;
75716;SDS011;64333;50.138;14.332;2023-06-22T12:59:44;8.70;;;7.85;;
75716;SDS011;64333;50.138;14.332;2023-06-22T13:02:10;9.27;;;8.43;;
75716;SDS011;64333;50.138;14.332;2023-06-22T13:04:35;9.35;;;8.45;;
75716;SDS011;64333;50.138;14.332;2023-06-22T13:07:00;9.38;;;8.48;;
75716;SDS011;64333;50.138;14.332;2023-06-22T13:09:26;9.45;;;8.27;;
75716;SDS011;64333;50.138;14.332;2023-06-22T13:11:51;9.50;;;8.60;;
75716;SDS011;64333;50.138;14.332;2023-06-22T13:14:17;8.85;;;8.02;;
75716;SDS011;64333;50.138;14.332;2023-06-22T13:16:43;9.38;;;8.48;;
75716;SDS011;64333;50.138;14.332;2023-06-22T13:19:08;8.63;;;7.57;;
75716;SDS011;64333;50.138;14.332;2023-06-22T13:21:34;9.30;;;8.50;;
75716;SDS011;64333;50.138;14.332;2023-06-22T13:23:59;9.23;;;8.43;;
75716;SDS011;64333;50.138;14.332;2023-06-22T13:26:25;9.52;;;8.20;;
75716;SDS011;64333;50.138;14.332;2023-06-22T13:28:50;9.50;;;8.68;;
75716;SDS011;64333;50.138;14.332;2023-06-22T13:31:16;9.25;;;8.35;;
75716;SDS011;64333;50.138;14.332;2023-06-22T13:33:41;8.38;;;7.65;;
75716;SDS011;64333;50.138;14.332;2023-06-22T13:36:07;8.77;;;7.88;;
75716;SDS011;64333;50.138;14.332;2023-06-22T13:38:34;8.77;;;7.80;;
75716;SDS011;64333;50.138;14.332;2023-06-22T13:41:03;8.60;;;7.50;;
75716;SDS011;64333;50.138;14.332;2023-06-22T13:43:29;7.90;;;7.10;;
75716;SDS011;64333;50.138;14.332;2023-06-22T13:45:55;7.93;;;7.15;;
75716;SDS011;64333;50.138;14.332;2023-06-22T13:48:20;7.20;;;6.50;;
75716;SDS011;64333;50.138;14.332;2023-06-22T13:50:46;7.53;;;6.72;;
75716;SDS011;64333;50.138;14.332;2023-06-22T13:53:11;8.45;;;7.57;;
75716;SDS011;64333;50.138;14.332;2023-06-22T13:55:37;8.10;;;7.30;;
75716;SDS011;64333;50.138;14.332;2023-06-22T13:58:02;7.35;;;6.53;;
75716;SDS011;64333;50.138;14.332;2023-06-22T14:00:27;7.65;;;6.95;;
75716;SDS011;64333;50.138;14.332;2023-06-22T14:02:53;7.43;;;6.32;;
75716;SDS011;64333;50.138;14.332;2023-06-22T14:05:19;7.57;;;6.97;;
75716;SDS011;64333;50.138;14.332;2023-06-22T14:07:45;7.00;;;6.22;;
75716;SDS011;64333;50.138;14.332;2023-06-22T14:10:11;7.93;;;6.57;;
75716;SDS011;64333;50.138;14.332;2023-06-22T14:12:36;8.20;;;6.97;;
75716;SDS011;64333;50.138;14.332;2023-06-22T14:15:02;10.07;;;6.70;;
75716;SDS011;64333;50.138;14.332;2023-06-22T14:17:27;7.10;;;6.50;;
75716;SDS011;64333;50.138;14.332;2023-06-22T14:19:53;8.38;;;6.95;;
75716;SDS011;64333;50.138;14.332;2023-06-22T14:22:21;8.82;;;6.53;;